This is the latest recevied weather packets stored in our database for station/object K0CVS. If no packets are shown the sender has not sent any weather packets the latest 10 day(s).
| Time | Temp. | Humidity | Pressure | Rain* | Wind** | Luminosity | Snow |
|---|---|---|---|---|---|---|---|
| 1777580529 | 18.89° C | 48% | 1016.7 hPa | 0 mm | - | 250 W/m² | - |
| 1777580224 | 18.89° C | 47% | 1016.9 hPa | 0 mm | - | 282 W/m² | - |
| 1777579921 | 18.89° C | 47% | 1016.7 hPa | 0 mm | - | 182 W/m² | - |
| 1777579616 | 18.89° C | 47% | 1016.9 hPa | 0 mm | - | 388 W/m² | - |
| 1777579315 | 18.89° C | 46% | 1016.9 hPa | 0 mm | - | 317 W/m² | - |
| 1777579011 | 18.89° C | 47% | 1016.9 hPa | 0 mm | - | 398 W/m² | - |
| 1777578706 | 18.89° C | 47% | 1017 hPa | 0 mm | - | 192 W/m² | - |
| 1777578405 | 18.89° C | 47% | 1017 hPa | 0 mm | - | 381 W/m² | - |
| 1777578102 | 18.33° C | 47% | 1017 hPa | 0 mm | - | 397 W/m² | - |
| 1777577798 | 18.33° C | 48% | 1017.1 hPa | 0 mm | - | 212 W/m² | - |
| 1777577493 | 18.89° C | 47% | 1016.9 hPa | 0 mm | - | 134 W/m² | - |
| 1777577191 | 18.89° C | 46% | 1017 hPa | 0 mm | - | 161 W/m² | - |
| 1777576887 | 18.89° C | 46% | 1017.1 hPa | 0 mm | - | 480 W/m² | - |
| 1777576586 | 19.44° C | 45% | 1017 hPa | 0 mm | - | 271 W/m² | - |
| 1777576282 | 18.89° C | 45% | 1017.1 hPa | 0 mm | - | 732 W/m² | - |
| 1777575979 | 18.33° C | 47% | 1017.1 hPa | 0 mm | - | 404 W/m² | - |
| 1777575675 | 18.33° C | 47% | 1017.3 hPa | 0 mm | - | 210 W/m² | - |
| 1777575370 | 18.33° C | 47% | 1017.2 hPa | 0 mm | - | 533 W/m² | - |
| 1777575068 | 18.33° C | 47% | 1017.1 hPa | 0 mm | - | 132 W/m² | - |
| 1777574763 | 18.33° C | 48% | 1017.3 hPa | 0 mm | - | 598 W/m² | - |
| 1777574462 | 18.89° C | 45% | 1017.3 hPa | 0 mm | - | 237 W/m² | - |
| 1777574162 | 18.33° C | 48% | 1017.4 hPa | 0 mm | - | 283 W/m² | - |
| 1777573857 | 18.33° C | 49% | 1017.2 hPa | 0 mm | - | 259 W/m² | - |
| 1777573552 | 17.78° C | 49% | 1017.3 hPa | 0 mm | - | 222 W/m² | - |
| 1777573249 | 17.78° C | 49% | 1017.5 hPa | 0 mm | - | 378 W/m² | - |
* Rain latest hour (hover to see other rain measurements)
** Current wind speed in m/s (hover to see current wind gust speed)